ETND

Diepholz Airport

Diepholz, Germany
TAF AMD ETND 221401Z 2212/2221 16008KT 9999 NSW SCT160 BKN220 BECMG 2216/2218 16008KT 8000 NSW BKN020 BKN160 TEMPO 2218/2221 13012KT 3000 SN BKN008 OVC015 CANCEL BY ETGL
Issued Valid From Valid To
Jan-22 @ 14:01 UTC
(3 hours ago)
Jan-22 @ 12:00 UTC
(5 hours ago)
Jan-22 @ 21:00 UTC
(in 4 hours)
Expired Click to View Jan-22 @ 12:00 to Jan-22 @ 16:00
TAF AMD ETND 221401Z 2212/2221 16008KT 9999 NSW SCT160 BKN220
Wind Visibility Clouds Conditions
160° at 8 knots 10,000+ meters
  • Scattered at 16,000' AGL
  • Broken at 22,000' AGL
Becoming Jan-22 @ 16:00 to Jan-22 @ 21:00
BECMG 2216/2218 16008KT 8000 NSW BKN020 BKN160
Wind Visibility Clouds Conditions
160° at 8 knots 7,998 meters
  • Broken at 2,000' AGL
  • Broken at 16,000' AGL
Temporary Jan-22 @ 18:00 to Jan-22 @ 21:00
TEMPO 2218/2221 13012KT 3000 SN BKN008 OVC015 CANCEL BY ETGL
Wind Visibility Clouds Conditions
130° at 12 knots 2,993 meters
  • Broken at 800' AGL
  • Overcast at 1,500' AGL
  • Snow
TAF AMD ETND 221401Z 2212/2221 16008KT 9999 NSW SCT160 BKN220 BECMG 2216/2218 16008KT 8000 NSW BKN020 BKN160 TEMPO 2218/2221 13012KT 3000 SN BKN008 OVC015 CANCEL BY ETGL
Issued Jan-22 @ 14:01 UTC
(3 hours ago)
Valid From Jan-22 @ 12:00 UTC
(5 hours ago)
Valid To Jan-22 @ 21:00 UTC
(in 4 hours)
Jan-22 @ 12:00 - Jan-22 @ 16:00
Wind Visibility
160° at 8 knots 10,000+ meters
Clouds
  • Scattered at 16,000' AGL
  • Broken at 22,000' AGL
Conditions
Becoming Jan-22 @ 16:00 - Jan-22 @ 21:00
Wind Visibility
160° at 8 knots 7,998 meters
Clouds
  • Broken at 2,000' AGL
  • Broken at 16,000' AGL
Conditions
Temporary Jan-22 @ 18:00 - Jan-22 @ 21:00
Wind Visibility
130° at 12 knots 2,993 meters
Clouds
  • Broken at 800' AGL
  • Overcast at 1,500' AGL
Conditions
  • Snow